< < Back
Terminal Aerodrome Forecast


Current Version              Previous Versions:   1  2  3  4  5  6  7  8  9  

Terminal Aerodrome Forecast

238
FTUS44 KOHX 222300
TAFCSV
TAF
KCSV 222339Z 2300/2324 03005KT P6SM SKC=



Latest METAR

334
SAUS70 KWBC 230300 RRJ
MTRCSV
METAR KCSV 230253Z AUTO 05004KT 10SM CLR 06/03 A3022 RMK AO2 SLP236
T00560028 50007


USA.gov is the U.S. government's official web portal to all federal, state and local government web resources and services.